KOCH/OCH METAR and TAF weather

Enter ICAO airport designator
Station Type Date Time Source
KOCH METAR 2020/04/05 11:56 UTC NOAA

KOCH 051156Z AUTO VRB05KT 1 3/4SM BR OVC002 13/12 A3005 RMK AO2 SLP178 6//// 7//// T01280122 10128 20122 51011


Station Type Date Time Source
KOCH Decoded METAR 2020/04/05 11:56 UTC NOAA

Nacogdoches, A L Mangham Jr. Regional Airport, TX, United States (KOCH) 31-35N 094-43W
Apr 05, 2020 - 07:56 AM EDT / 2020.04.05 1156 UTC
Wind: Variable at 6 MPH (5 KT):0
Visibility: 1 3/4 mile(s):0
Sky conditions: overcast
Weather: mist
Temperature: 55.0 F (12.8 C)
Dew Point: 54.0 F (12.2 C)
Relative Humidity: 96%
Pressure (altimeter): 30.05 in. Hg (1017 hPa)
Pressure tendency: 0.03 inches (1.1 hPa) higher than three hours ago
ob: KOCH 051156Z AUTO VRB05KT 1 3/4SM BR OVC002 13/12 A3005 RMK AO2 SLP178 6//// 7//// T01280122 10128 20122 51011
cycle: 12

Station Type Date Time Source
KOCH TAF UTC NOAA

Error!

Example: see airport list